createdAt,value
2022-11-29T00:04:56.824Z,20.96
2022-11-29T00:15:00.018Z,20.95
2022-11-29T00:25:03.148Z,20.96
2022-11-29T00:35:09.696Z,20.95
2022-11-29T00:45:10.528Z,20.95
2022-11-29T00:55:13.712Z,20.95
2022-11-29T01:05:16.860Z,20.96
2022-11-29T01:15:20.050Z,20.96
2022-11-29T01:25:23.200Z,20.96
2022-11-29T01:35:26.392Z,20.96
2022-11-29T01:45:29.543Z,20.96
2022-11-29T01:55:32.815Z,20.96
2022-11-29T02:05:36.105Z,20.96
2022-11-29T02:15:39.327Z,20.95
2022-11-29T02:25:42.495Z,20.95
2022-11-29T02:35:45.676Z,20.95
2022-11-29T02:45:48.830Z,20.95
2022-11-29T02:55:52.000Z,20.96
2022-11-29T03:05:55.132Z,20.96
2022-11-29T03:15:58.385Z,20.95
2022-11-29T03:26:01.543Z,20.95
2022-11-29T03:36:04.730Z,20.96
2022-11-29T03:46:07.990Z,20.96
2022-11-29T03:56:11.202Z,20.96
2022-11-29T04:06:14.390Z,20.98
2022-11-29T04:16:17.973Z,20.96
2022-11-29T04:26:21.169Z,20.96
2022-11-29T04:36:24.374Z,20.98
2022-11-29T04:46:27.555Z,20.98
2022-11-29T04:56:30.858Z,20.96
2022-11-29T05:06:34.002Z,20.99
2022-11-29T05:16:38.167Z,20.96
2022-11-29T05:26:41.308Z,20.98
2022-11-29T05:36:44.493Z,20.96
2022-11-29T05:46:47.692Z,20.96
2022-11-29T05:56:50.884Z,20.96
2022-11-29T06:06:54.037Z,20.96
2022-11-29T06:16:57.227Z,20.95
2022-11-29T06:27:00.368Z,20.96
2022-11-29T06:37:03.594Z,20.98
2022-11-29T06:47:06.735Z,20.98
2022-11-29T06:57:09.919Z,20.98
2022-11-29T07:07:13.059Z,20.98
2022-11-29T07:17:16.252Z,20.98
2022-11-29T07:27:19.405Z,20.96
2022-11-29T07:37:22.595Z,20.96
2022-11-29T07:47:25.761Z,20.96
2022-11-29T07:57:28.943Z,20.96
2022-11-29T08:07:32.131Z,20.99
2022-11-29T08:17:35.325Z,20.98
2022-11-29T08:27:38.476Z,20.98
2022-11-29T08:37:41.663Z,20.98
2022-11-29T08:47:44.817Z,20.99
2022-11-29T08:57:48.004Z,20.98
2022-11-29T09:07:51.275Z,20.98
2022-11-29T09:17:54.470Z,20.99
2022-11-29T09:27:57.607Z,20.98
2022-11-29T09:38:00.808Z,20.99
2022-11-29T09:48:03.952Z,21.01
2022-11-29T09:58:07.127Z,21.01
2022-11-29T10:08:10.259Z,21.02
2022-11-29T10:18:13.472Z,21.01
2022-11-29T10:28:16.620Z,21.01
2022-11-29T10:38:30.729Z,21.01
2022-11-29T10:48:23.745Z,21.01
2022-11-29T10:58:28.589Z,21.01
2022-11-29T11:08:29.488Z,21.01
2022-11-29T11:18:32.679Z,21.02
2022-11-29T11:28:35.819Z,21.02
2022-11-29T11:38:39.032Z,21.01
2022-11-29T11:48:42.181Z,21.01
2022-11-29T11:58:45.396Z,21.01
2022-11-29T12:08:48.647Z,21.01
2022-11-29T12:18:51.841Z,21.01
2022-11-29T12:28:54.988Z,21.01
2022-11-29T12:38:58.188Z,21.02
2022-11-29T12:49:01.330Z,21.02
2022-11-29T12:59:04.531Z,21.02
2022-11-29T13:09:07.673Z,21.02
2022-11-29T13:19:10.920Z,21.02
2022-11-29T13:29:14.070Z,21.02
2022-11-29T13:39:17.274Z,21.02
2022-11-29T13:49:20.411Z,21.04
2022-11-29T13:59:23.626Z,21.11
2022-11-29T14:09:26.784Z,21.21
2022-11-29T14:19:33.352Z,21.38
2022-11-29T14:29:34.691Z,21.46
2022-11-29T14:39:37.910Z,21.53
2022-11-29T14:49:41.051Z,21.59
2022-11-29T14:59:44.249Z,21.63
2022-11-29T15:09:47.388Z,21.69
2022-11-29T15:19:50.600Z,21.75
2022-11-29T15:29:53.788Z,21.78
2022-11-29T15:39:57.021Z,21.94
2022-11-29T15:50:00.301Z,21.98
2022-11-29T16:00:03.539Z,21.97
2022-11-29T16:10:06.694Z,21.97
2022-11-29T16:20:09.943Z,21.97
2022-11-29T16:30:13.100Z,21.97
2022-11-29T16:40:16.309Z,21.95
2022-11-29T16:50:19.479Z,21.94
2022-11-29T17:00:22.691Z,21.91
2022-11-29T17:10:25.889Z,21.90
2022-11-29T17:20:29.082Z,21.85
2022-11-29T17:30:32.392Z,21.82
2022-11-29T17:40:35.618Z,21.82
2022-11-29T17:50:38.761Z,21.78
2022-11-29T18:00:42.003Z,21.76
2022-11-29T18:10:45.174Z,21.74
2022-11-29T18:20:48.387Z,21.72
2022-11-29T18:30:51.581Z,21.67
2022-11-29T18:40:54.844Z,21.66
2022-11-29T18:50:58.013Z,21.63
2022-11-29T19:01:01.360Z,21.61
2022-11-29T19:11:04.642Z,21.60
2022-11-29T19:21:07.865Z,21.57
2022-11-29T19:31:11.105Z,21.54
2022-11-29T19:41:14.324Z,21.51
2022-11-29T19:51:18.502Z,21.51
2022-11-29T20:01:21.763Z,21.48
2022-11-29T20:11:24.961Z,21.46
2022-11-29T20:21:28.120Z,21.45
2022-11-29T20:31:31.332Z,21.42
2022-11-29T20:41:34.538Z,21.44
2022-11-29T20:51:37.701Z,21.41
2022-11-29T21:01:40.938Z,21.38
2022-11-29T21:11:44.097Z,21.36
2022-11-29T21:21:47.300Z,21.38
2022-11-29T21:31:50.447Z,21.34
2022-11-29T21:41:53.625Z,21.32
2022-11-29T21:51:56.774Z,21.32
2022-11-29T22:02:00.169Z,21.27
2022-11-29T22:12:19.471Z,21.26
2022-11-29T22:22:07.451Z,21.24
2022-11-29T22:32:10.609Z,21.24
2022-11-29T22:53:05.579Z,21.19
2022-11-29T23:03:08.870Z,21.19
2022-11-29T23:24:03.872Z,21.14
2022-11-29T23:34:07.021Z,21.13
2022-11-29T23:55:01.990Z,21.09
